createdAt,value
2019-03-31T00:00:52.275Z,69.80
2019-03-31T00:03:22.265Z,73.37
2019-03-31T00:05:52.210Z,63.07
2019-03-31T00:08:22.190Z,67.10
2019-03-31T00:10:52.146Z,68.60
2019-03-31T00:13:22.140Z,44.33
2019-03-31T00:15:52.086Z,47.33
2019-03-31T00:18:22.070Z,45.27
2019-03-31T00:20:52.052Z,43.47
2019-03-31T00:23:22.009Z,38.37
2019-03-31T00:25:53.621Z,37.60
2019-03-31T00:28:23.577Z,34.83
2019-03-31T00:30:54.086Z,34.73
2019-03-31T00:33:24.036Z,39.07
2019-03-31T00:35:54.188Z,34.27
2019-03-31T00:38:24.135Z,33.87
2019-03-31T00:40:54.107Z,31.87
2019-03-31T00:43:24.072Z,33.07
2019-03-31T00:45:54.038Z,37.80
2019-03-31T00:48:24.001Z,38.97
2019-03-31T00:50:53.966Z,35.10
2019-03-31T00:53:23.924Z,33.37
2019-03-31T00:55:53.899Z,41.97
2019-03-31T00:58:23.861Z,35.27
2019-03-31T01:01:01.239Z,39.93
2019-03-31T01:03:34.731Z,44.27
2019-03-31T01:06:05.340Z,37.10
2019-03-31T01:08:35.692Z,36.03
2019-03-31T01:11:10.286Z,35.70
2019-03-31T01:13:40.838Z,37.40
2019-03-31T01:16:12.769Z,41.13
2019-03-31T01:18:43.289Z,40.73
2019-03-31T01:21:13.326Z,36.63
2019-03-31T01:23:43.346Z,39.10
2019-03-31T01:26:15.213Z,31.80
2019-03-31T01:28:45.223Z,32.60
2019-03-31T01:31:15.197Z,35.33
2019-03-31T01:33:45.147Z,37.53
2019-03-31T01:36:16.087Z,34.30
2019-03-31T01:38:46.049Z,32.43
2019-03-31T01:41:16.366Z,33.00
2019-03-31T01:43:46.319Z,31.70
2019-03-31T01:46:18.499Z,30.87
2019-03-31T01:48:48.452Z,36.50
2019-03-31T01:51:18.432Z,33.80
2019-03-31T01:53:48.382Z,33.57
2019-03-31T01:56:18.762Z,34.93
2019-03-31T01:58:48.711Z,35.10
2019-03-31T02:01:19.854Z,35.37
2019-03-31T02:03:49.803Z,35.33
2019-03-31T02:06:19.778Z,34.80
2019-03-31T02:08:49.724Z,35.10
2019-03-31T02:11:19.704Z,34.10
2019-03-31T02:13:49.665Z,34.20
2019-03-31T02:16:19.630Z,37.43
2019-03-31T02:18:49.578Z,39.90
2019-03-31T02:21:19.551Z,36.50
2019-03-31T02:23:49.512Z,36.60
2019-03-31T02:26:19.488Z,36.57
2019-03-31T02:28:49.439Z,36.67
2019-03-31T02:31:19.422Z,35.60
2019-03-31T02:33:49.379Z,31.20
2019-03-31T02:36:19.362Z,33.13
2019-03-31T02:38:49.317Z,37.57
2019-03-31T02:41:19.291Z,33.80
2019-03-31T02:43:49.239Z,34.40
2019-03-31T02:46:19.213Z,31.63
2019-03-31T02:48:49.179Z,35.10
2019-03-31T02:51:19.333Z,34.83
2019-03-31T02:53:49.286Z,33.63
2019-03-31T02:56:19.823Z,32.57
2019-03-31T02:58:51.810Z,35.37
2019-03-31T03:01:24.433Z,34.53
2019-03-31T03:03:55.728Z,38.60
2019-03-31T03:06:27.737Z,38.23
2019-03-31T03:08:59.135Z,33.27
2019-03-31T03:11:31.460Z,32.23
2019-03-31T03:14:03.862Z,35.63
2019-03-31T03:16:33.820Z,35.07
2019-03-31T03:19:04.430Z,33.23
2019-03-31T03:21:34.500Z,35.70
2019-03-31T03:24:04.526Z,29.23
2019-03-31T03:26:34.501Z,33.77
2019-03-31T03:29:04.446Z,34.53
2019-03-31T03:31:34.432Z,36.13
2019-03-31T03:34:04.397Z,34.57
2019-03-31T03:36:34.359Z,35.17
2019-03-31T03:39:06.731Z,33.87
2019-03-31T03:41:36.771Z,33.83
2019-03-31T03:44:06.722Z,33.00
2019-03-31T03:46:36.700Z,30.90
2019-03-31T03:49:06.686Z,29.37
2019-03-31T03:51:36.687Z,31.87
2019-03-31T03:54:06.716Z,30.57
2019-03-31T03:56:36.755Z,31.50
2019-03-31T03:59:06.715Z,29.87
2019-03-31T04:01:36.740Z,31.50
2019-03-31T04:04:06.745Z,32.73
2019-03-31T04:06:36.716Z,30.10
2019-03-31T04:09:07.748Z,31.60
2019-03-31T04:11:37.712Z,32.77
2019-03-31T04:14:07.674Z,29.33
2019-03-31T04:16:37.644Z,34.17
2019-03-31T04:19:08.570Z,30.80
2019-03-31T04:21:38.535Z,31.80
2019-03-31T04:24:08.498Z,27.77
2019-03-31T04:26:38.466Z,30.77
2019-03-31T04:29:08.421Z,35.63
2019-03-31T04:31:38.407Z,30.23
2019-03-31T04:34:09.438Z,31.97
2019-03-31T04:36:39.413Z,33.50
2019-03-31T04:39:09.359Z,32.60
2019-03-31T04:41:39.345Z,31.63
2019-03-31T04:44:09.291Z,33.00
2019-03-31T04:46:39.267Z,29.47
2019-03-31T04:49:09.220Z,31.50
2019-03-31T04:51:39.223Z,32.80
2019-03-31T04:54:09.184Z,28.63
2019-03-31T04:56:39.228Z,33.00
2019-03-31T04:59:09.183Z,37.57
2019-03-31T05:01:39.169Z,35.53
2019-03-31T05:04:09.227Z,34.83
2019-03-31T05:06:39.200Z,38.23
2019-03-31T05:09:09.157Z,47.23
2019-03-31T05:11:39.136Z,52.23
2019-03-31T05:14:09.090Z,47.23
2019-03-31T05:16:39.081Z,44.03
2019-03-31T05:19:09.032Z,44.07
2019-03-31T05:21:39.011Z,48.30
2019-03-31T05:24:08.963Z,50.40
2019-03-31T05:26:38.935Z,50.03
2019-03-31T05:29:08.883Z,47.23
2019-03-31T05:31:38.854Z,49.77
2019-03-31T05:34:19.096Z,49.87
2019-03-31T05:36:40.402Z,48.53
2019-03-31T05:39:10.360Z,47.57
2019-03-31T05:41:40.347Z,47.23
2019-03-31T05:44:10.304Z,44.77
2019-03-31T05:46:40.285Z,45.67
2019-03-31T05:49:10.352Z,46.97
2019-03-31T05:51:40.302Z,47.13
2019-03-31T05:54:10.261Z,46.13
2019-03-31T05:56:40.244Z,41.90
2019-03-31T05:59:10.192Z,45.97
2019-03-31T06:01:40.179Z,45.27
2019-03-31T06:04:10.137Z,46.97
2019-03-31T06:06:40.211Z,52.87
2019-03-31T06:09:10.173Z,49.57
2019-03-31T06:11:40.152Z,47.43
2019-03-31T06:14:10.099Z,48.33
2019-03-31T06:16:40.084Z,47.87
2019-03-31T06:19:10.030Z,49.93
2019-03-31T06:21:40.008Z,52.40
2019-03-31T06:24:10.008Z,46.07
2019-03-31T06:26:39.948Z,47.70
2019-03-31T06:29:09.909Z,52.33
2019-03-31T06:31:39.884Z,52.27
2019-03-31T06:34:09.863Z,47.47
2019-03-31T06:36:40.251Z,50.13
2019-03-31T06:39:10.312Z,52.07
2019-03-31T06:41:40.328Z,49.60
2019-03-31T06:44:10.327Z,48.43
2019-03-31T06:46:40.302Z,51.37
2019-03-31T06:49:10.518Z,54.33
2019-03-31T06:51:40.784Z,57.17
2019-03-31T06:54:10.844Z,58.07
2019-03-31T06:56:40.814Z,57.53
2019-03-31T06:59:10.751Z,50.70
2019-03-31T07:01:40.756Z,58.00
2019-03-31T07:04:10.712Z,61.60
2019-03-31T07:06:40.692Z,55.60
2019-03-31T07:09:10.671Z,56.77
2019-03-31T07:11:40.631Z,61.67
2019-03-31T07:14:10.624Z,59.47
2019-03-31T07:16:40.583Z,61.67
2019-03-31T07:19:10.569Z,60.10
2019-03-31T07:21:40.527Z,61.00
2019-03-31T07:24:10.561Z,60.13
2019-03-31T07:26:40.521Z,62.97
2019-03-31T07:29:10.506Z,60.83
2019-03-31T07:31:40.467Z,61.60
2019-03-31T07:34:11.414Z,63.83
2019-03-31T07:36:41.386Z,63.70
2019-03-31T07:39:11.511Z,63.13
2019-03-31T07:41:41.539Z,66.43
2019-03-31T07:44:15.164Z,55.20
2019-03-31T07:46:43.217Z,54.63
2019-03-31T07:49:13.204Z,56.57
2019-03-31T07:51:43.170Z,55.67
2019-03-31T07:54:13.245Z,72.30
2019-03-31T07:56:45.038Z,69.87
2019-03-31T07:59:15.017Z,59.97
2019-03-31T08:01:44.998Z,58.47
2019-03-31T08:04:15.002Z,66.00
2019-03-31T08:06:44.961Z,62.37
2019-03-31T08:09:14.942Z,63.73
2019-03-31T08:11:44.915Z,65.03
2019-03-31T08:14:14.905Z,68.33
2019-03-31T08:16:44.875Z,64.93
2019-03-31T08:19:14.872Z,65.30
2019-03-31T08:21:44.823Z,67.00
2019-03-31T08:24:14.803Z,69.17
2019-03-31T08:26:44.765Z,64.73
2019-03-31T08:29:14.748Z,60.80
2019-03-31T08:31:44.707Z,64.10
2019-03-31T08:34:14.691Z,71.13
2019-03-31T08:36:44.652Z,67.37
2019-03-31T08:39:14.646Z,64.23
2019-03-31T08:41:44.604Z,66.30
2019-03-31T08:44:14.587Z,68.20
2019-03-31T08:46:44.551Z,65.33
2019-03-31T08:49:14.535Z,67.63
2019-03-31T08:51:44.500Z,69.80
2019-03-31T08:54:14.482Z,69.13
2019-03-31T08:56:44.442Z,67.33
2019-03-31T08:59:14.423Z,68.53
2019-03-31T09:01:45.155Z,68.20
2019-03-31T09:04:15.140Z,71.37
2019-03-31T09:06:45.100Z,68.90
2019-03-31T09:09:15.082Z,71.57
2019-03-31T09:11:45.043Z,70.87
2019-03-31T09:14:15.023Z,71.30
2019-03-31T09:16:44.984Z,68.43
2019-03-31T09:19:15.078Z,70.60
2019-03-31T09:21:45.031Z,69.97
2019-03-31T09:24:15.006Z,72.57
2019-03-31T09:26:44.975Z,72.73
2019-03-31T09:29:14.947Z,73.90
2019-03-31T09:31:44.901Z,82.67
2019-03-31T09:34:14.879Z,73.27
2019-03-31T09:36:44.845Z,73.17
2019-03-31T09:39:14.832Z,71.80
2019-03-31T09:41:44.802Z,78.13
2019-03-31T09:44:14.892Z,76.07
2019-03-31T09:46:44.839Z,72.20
2019-03-31T09:49:14.822Z,76.40
2019-03-31T09:51:44.789Z,73.27
2019-03-31T09:54:14.768Z,74.57
2019-03-31T09:56:44.735Z,85.33
2019-03-31T09:59:14.716Z,84.03
2019-03-31T10:01:44.679Z,75.87
2019-03-31T10:04:14.650Z,84.20
2019-03-31T10:06:44.611Z,74.20
2019-03-31T10:09:14.596Z,74.00
2019-03-31T10:11:44.555Z,79.20
2019-03-31T10:14:14.535Z,87.27
2019-03-31T10:16:44.504Z,81.67
2019-03-31T10:19:14.483Z,76.93
2019-03-31T10:21:44.458Z,80.03
2019-03-31T10:24:14.423Z,73.77
2019-03-31T10:26:44.382Z,76.47
2019-03-31T10:29:14.355Z,76.73
2019-03-31T10:31:44.321Z,70.97
2019-03-31T10:34:14.377Z,67.93
2019-03-31T10:36:45.113Z,77.77
2019-03-31T10:39:15.211Z,68.73
2019-03-31T10:41:45.328Z,70.67
2019-03-31T10:44:15.479Z,70.10
2019-03-31T10:46:45.469Z,78.20
2019-03-31T10:49:15.540Z,71.37
2019-03-31T10:51:45.598Z,68.63
2019-03-31T10:54:15.574Z,71.77
2019-03-31T10:56:45.540Z,67.03
2019-03-31T10:59:16.486Z,75.70
2019-03-31T11:01:46.520Z,67.70
2019-03-31T11:04:16.505Z,67.93
2019-03-31T11:06:58.260Z,68.07
2019-03-31T11:09:18.116Z,69.00
2019-03-31T11:11:48.072Z,63.07
2019-03-31T11:14:18.055Z,65.30
2019-03-31T11:16:48.016Z,68.00
2019-03-31T11:19:17.995Z,71.37
2019-03-31T11:21:49.592Z,72.33
2019-03-31T11:24:19.580Z,65.77
2019-03-31T11:26:49.548Z,60.80
2019-03-31T11:29:19.531Z,56.27
2019-03-31T11:31:49.498Z,60.63
2019-03-31T11:34:19.847Z,60.10
2019-03-31T11:36:49.884Z,61.90
2019-03-31T11:39:19.876Z,57.23
2019-03-31T11:41:49.846Z,58.07
2019-03-31T11:44:19.835Z,55.70
2019-03-31T11:46:50.252Z,68.37
2019-03-31T11:49:21.025Z,64.50
2019-03-31T11:51:51.786Z,61.27
2019-03-31T11:54:21.794Z,54.57
2019-03-31T11:56:51.754Z,64.43
2019-03-31T11:59:22.330Z,63.23
2019-03-31T12:01:53.573Z,49.40
2019-03-31T12:04:24.316Z,61.83
2019-03-31T12:06:55.246Z,54.63
2019-03-31T12:09:25.842Z,57.83
2019-03-31T12:11:56.087Z,58.60
2019-03-31T12:14:26.104Z,57.70
2019-03-31T12:16:56.491Z,62.57
2019-03-31T12:19:27.409Z,59.50
2019-03-31T12:21:58.531Z,61.70
2019-03-31T12:24:29.012Z,54.90
2019-03-31T12:26:59.792Z,51.53
2019-03-31T12:29:29.815Z,55.27
2019-03-31T12:32:00.306Z,49.00
2019-03-31T12:34:30.390Z,48.00
2019-03-31T12:37:01.708Z,53.67
2019-03-31T12:39:33.833Z,52.40
2019-03-31T12:42:04.612Z,50.37
2019-03-31T12:44:36.310Z,49.77
2019-03-31T12:47:07.749Z,46.43
2019-03-31T12:49:38.364Z,51.83
2019-03-31T12:52:09.187Z,51.40
2019-03-31T12:54:39.997Z,52.50
2019-03-31T12:57:11.636Z,50.93
2019-03-31T12:59:43.266Z,44.63
2019-03-31T13:02:14.057Z,49.40
2019-03-31T13:04:44.779Z,53.17
2019-03-31T13:07:15.196Z,56.50
2019-03-31T13:09:45.867Z,52.30
2019-03-31T13:12:15.882Z,45.33
2019-03-31T13:14:45.862Z,49.60
2019-03-31T13:17:15.831Z,47.30
2019-03-31T13:19:45.812Z,46.73
2019-03-31T13:22:15.767Z,53.23
2019-03-31T13:24:45.755Z,55.50
2019-03-31T13:27:15.798Z,47.93
2019-03-31T13:29:45.794Z,48.73
2019-03-31T13:32:15.761Z,60.73
2019-03-31T13:34:45.761Z,52.80
2019-03-31T13:37:15.772Z,51.00
2019-03-31T13:39:46.844Z,47.40
2019-03-31T13:42:16.804Z,47.23
2019-03-31T13:44:46.955Z,44.83
2019-03-31T13:47:16.941Z,43.67
2019-03-31T13:49:46.907Z,44.13
2019-03-31T13:52:16.900Z,41.40
2019-03-31T13:54:46.844Z,48.87
2019-03-31T13:57:17.284Z,42.83
2019-03-31T13:59:47.464Z,51.67
2019-03-31T14:02:17.442Z,44.80
2019-03-31T14:04:51.870Z,43.77
2019-03-31T14:07:19.086Z,47.40
2019-03-31T14:09:49.047Z,50.17
2019-03-31T14:12:19.027Z,48.80
2019-03-31T14:14:48.990Z,55.47
2019-03-31T14:17:18.972Z,57.33
2019-03-31T14:19:48.922Z,52.43
2019-03-31T14:22:18.906Z,50.93
2019-03-31T14:24:49.073Z,51.70
2019-03-31T14:27:19.051Z,58.97
2019-03-31T14:29:49.006Z,53.33
2019-03-31T14:32:19.023Z,56.47
2019-03-31T14:34:48.983Z,57.63
2019-03-31T14:37:20.045Z,56.23
2019-03-31T14:39:50.007Z,54.60
2019-03-31T14:42:19.983Z,56.07
2019-03-31T14:44:49.938Z,54.40
2019-03-31T14:47:19.929Z,50.60
2019-03-31T14:49:49.886Z,42.63
2019-03-31T14:52:27.196Z,44.37
2019-03-31T14:54:51.487Z,47.93
2019-03-31T14:57:21.462Z,40.23
2019-03-31T14:59:51.483Z,45.33
2019-03-31T15:02:21.468Z,28.83
2019-03-31T15:04:51.423Z,23.57
2019-03-31T15:07:21.455Z,23.47
2019-03-31T15:09:51.434Z,21.17
2019-03-31T15:12:21.492Z,20.87
2019-03-31T15:14:51.475Z,21.40
2019-03-31T15:17:21.722Z,24.67
2019-03-31T15:19:51.682Z,23.37
2019-03-31T15:22:21.767Z,22.50
2019-03-31T15:24:51.731Z,21.33
2019-03-31T15:27:21.806Z,22.10
2019-03-31T15:29:51.787Z,23.30
2019-03-31T15:32:21.834Z,18.97
2019-03-31T15:34:51.828Z,23.70
2019-03-31T15:37:21.877Z,23.60
2019-03-31T15:39:51.850Z,24.63
2019-03-31T15:42:21.836Z,23.47
2019-03-31T15:44:51.791Z,30.27
2019-03-31T15:47:21.838Z,17.03
2019-03-31T15:49:51.793Z,17.93
2019-03-31T15:52:21.822Z,18.93
2019-03-31T15:54:51.763Z,20.00
2019-03-31T15:57:21.712Z,17.00
2019-03-31T15:59:53.003Z,18.43
2019-03-31T16:02:24.624Z,18.23
2019-03-31T16:04:55.669Z,15.23
2019-03-31T16:07:25.646Z,18.27
2019-03-31T16:09:55.600Z,13.47
2019-03-31T16:12:25.570Z,13.03
2019-03-31T16:14:55.527Z,17.57
2019-03-31T16:17:25.539Z,12.53
2019-03-31T16:19:55.497Z,13.60
2019-03-31T16:22:25.569Z,13.37
2019-03-31T16:24:59.851Z,14.23
2019-03-31T16:27:29.830Z,11.83
2019-03-31T16:29:59.786Z,15.40
2019-03-31T16:32:29.767Z,14.20
2019-03-31T16:34:59.724Z,13.47
2019-03-31T16:37:29.778Z,14.10
2019-03-31T16:39:59.764Z,11.27
2019-03-31T16:42:29.747Z,12.30
2019-03-31T16:44:59.700Z,13.83
2019-03-31T16:47:29.665Z,9.57
2019-03-31T16:49:59.627Z,7.40
2019-03-31T16:52:29.600Z,10.93
2019-03-31T16:54:59.550Z,9.60
2019-03-31T16:57:29.620Z,8.73
2019-03-31T16:59:59.636Z,11.50
2019-03-31T17:02:29.551Z,9.93
2019-03-31T17:04:59.493Z,9.63
2019-03-31T17:07:30.439Z,7.63
2019-03-31T17:10:00.548Z,11.53
2019-03-31T17:12:30.471Z,10.47
2019-03-31T17:15:00.417Z,10.97
2019-03-31T17:17:30.387Z,10.73
2019-03-31T17:20:00.514Z,10.63
2019-03-31T17:22:30.616Z,8.67
2019-03-31T17:25:00.550Z,10.13
2019-03-31T17:27:30.539Z,12.87
2019-03-31T17:30:00.484Z,7.97
2019-03-31T17:32:30.467Z,10.47
2019-03-31T17:35:00.408Z,8.37
2019-03-31T17:37:30.362Z,10.53
2019-03-31T17:40:06.489Z,12.37
2019-03-31T17:42:32.070Z,10.90
2019-03-31T17:45:02.042Z,10.17
2019-03-31T17:47:32.011Z,12.73
2019-03-31T17:50:01.960Z,9.17
2019-03-31T17:52:31.949Z,11.63
2019-03-31T17:55:01.899Z,17.47
2019-03-31T17:57:31.874Z,15.80
2019-03-31T18:00:01.830Z,25.53
2019-03-31T18:02:32.530Z,30.27
2019-03-31T18:05:02.497Z,28.43
2019-03-31T18:07:32.465Z,19.20
2019-03-31T18:10:02.410Z,11.60
2019-03-31T18:12:32.392Z,17.57
2019-03-31T18:15:02.402Z,22.83
2019-03-31T18:17:32.349Z,16.33
2019-03-31T18:20:02.466Z,13.73
2019-03-31T18:22:32.705Z,13.87
2019-03-31T18:25:02.661Z,14.63
2019-03-31T18:27:32.641Z,14.57
2019-03-31T18:30:02.752Z,14.80
2019-03-31T18:32:32.787Z,14.73
2019-03-31T18:35:02.740Z,10.57
2019-03-31T18:37:33.775Z,14.40
2019-03-31T18:40:05.263Z,11.57
2019-03-31T18:42:35.227Z,12.73
2019-03-31T18:45:08.342Z,12.33
2019-03-31T18:47:38.312Z,15.53
2019-03-31T18:50:08.913Z,17.10
2019-03-31T18:52:38.884Z,19.73
2019-03-31T18:55:23.091Z,27.43
2019-03-31T18:58:06.657Z,25.50
2019-03-31T19:00:54.485Z,29.40
2019-03-31T19:03:42.416Z,19.03
2019-03-31T19:06:17.435Z,27.57
2019-03-31T19:08:54.999Z,26.00
2019-03-31T19:11:26.594Z,19.83
2019-03-31T19:13:58.246Z,19.63
2019-03-31T19:16:36.212Z,20.77
2019-03-31T19:19:19.636Z,20.07
2019-03-31T19:21:51.219Z,17.40
2019-03-31T19:24:22.833Z,15.23
2019-03-31T19:27:12.468Z,18.53
2019-03-31T19:29:44.078Z,14.77
2019-03-31T19:32:24.583Z,19.77
2019-03-31T19:34:59.168Z,16.40
2019-03-31T19:37:30.835Z,16.63
2019-03-31T19:40:11.456Z,16.87
2019-03-31T19:42:54.937Z,13.97
2019-03-31T19:45:29.476Z,14.80
2019-03-31T19:48:04.138Z,17.50
2019-03-31T19:50:38.626Z,15.30
2019-03-31T19:53:26.419Z,20.50
2019-03-31T19:56:16.290Z,14.60
2019-03-31T19:59:04.571Z,15.37
2019-03-31T20:01:36.326Z,14.87
2019-03-31T20:04:13.686Z,14.43
2019-03-31T20:06:54.343Z,15.87
2019-03-31T20:09:42.155Z,16.43
2019-03-31T20:12:16.475Z,15.00
2019-03-31T20:14:51.040Z,18.63
2019-03-31T20:17:22.632Z,17.67
2019-03-31T20:20:09.111Z,16.97
2019-03-31T20:22:58.878Z,15.23
2019-03-31T20:25:46.670Z,15.50
2019-03-31T20:28:18.280Z,15.40
2019-03-31T20:30:49.867Z,14.83
2019-03-31T20:33:37.714Z,13.97
2019-03-31T20:36:21.455Z,17.13
2019-03-31T20:38:55.575Z,22.77
2019-03-31T20:41:29.244Z,17.90
2019-03-31T20:43:59.256Z,14.47
2019-03-31T20:46:29.199Z,15.40
2019-03-31T20:48:59.168Z,16.60
2019-03-31T20:51:29.115Z,16.73
2019-03-31T20:53:59.084Z,15.70
2019-03-31T20:56:29.069Z,18.77
2019-03-31T20:59:00.083Z,17.90
2019-03-31T21:01:30.042Z,17.20
2019-03-31T21:04:00.016Z,17.70
2019-03-31T21:06:29.955Z,17.53
2019-03-31T21:08:59.922Z,19.80
2019-03-31T21:11:29.870Z,21.77
2019-03-31T21:13:59.843Z,17.23
2019-03-31T21:16:29.791Z,14.70
2019-03-31T21:18:59.754Z,15.90
2019-03-31T21:21:29.695Z,18.43
2019-03-31T21:23:59.730Z,20.53
2019-03-31T21:26:29.684Z,19.80
2019-03-31T21:28:59.662Z,17.07
2019-03-31T21:31:29.603Z,14.03
2019-03-31T21:33:59.575Z,15.83
2019-03-31T21:36:29.528Z,14.60
2019-03-31T21:38:59.503Z,15.23
2019-03-31T21:41:29.447Z,16.73
2019-03-31T21:43:59.415Z,12.83
2019-03-31T21:46:29.362Z,16.40
2019-03-31T21:48:59.335Z,13.77
2019-03-31T21:51:29.278Z,12.83
2019-03-31T21:53:59.257Z,14.20
2019-03-31T21:56:29.204Z,13.17
2019-03-31T21:58:59.170Z,13.30
2019-03-31T22:01:29.115Z,11.87
2019-03-31T22:04:00.155Z,13.13
2019-03-31T22:06:31.165Z,11.33
2019-03-31T22:09:01.131Z,10.80
2019-03-31T22:11:32.674Z,12.10
2019-03-31T22:14:02.647Z,11.97
2019-03-31T22:16:32.588Z,11.43
2019-03-31T22:19:02.559Z,12.93
2019-03-31T22:21:32.502Z,17.40
2019-03-31T22:24:02.479Z,12.07
2019-03-31T22:26:32.500Z,12.93
2019-03-31T22:29:02.472Z,15.17
2019-03-31T22:31:32.413Z,13.33
2019-03-31T22:34:02.500Z,15.70
2019-03-31T22:36:32.683Z,15.17
2019-03-31T22:39:02.658Z,13.83
2019-03-31T22:41:34.080Z,12.47
2019-03-31T22:44:04.311Z,13.33
2019-03-31T22:46:34.259Z,11.23
2019-03-31T22:49:04.308Z,12.47
2019-03-31T22:51:34.238Z,14.40
2019-03-31T22:54:04.228Z,17.20
2019-03-31T22:56:34.170Z,16.43
2019-03-31T22:59:04.147Z,12.77
2019-03-31T23:01:34.110Z,13.87
2019-03-31T23:04:04.129Z,13.23
2019-03-31T23:06:34.097Z,12.03
2019-03-31T23:09:06.584Z,13.07
2019-03-31T23:11:36.561Z,11.13
2019-03-31T23:14:06.504Z,13.90
2019-03-31T23:16:36.538Z,10.83
2019-03-31T23:19:06.488Z,12.60
2019-03-31T23:21:36.460Z,12.23
2019-03-31T23:24:06.472Z,11.57
2019-03-31T23:26:36.456Z,11.90
2019-03-31T23:29:06.404Z,11.60
2019-03-31T23:31:36.375Z,15.37
2019-03-31T23:34:06.323Z,10.43
2019-03-31T23:36:36.290Z,14.53
2019-03-31T23:39:07.673Z,13.23
2019-03-31T23:41:37.638Z,11.90
2019-03-31T23:44:07.589Z,12.27
2019-03-31T23:46:37.564Z,11.47
2019-03-31T23:49:07.502Z,18.93
2019-03-31T23:51:37.476Z,14.70
2019-03-31T23:54:07.416Z,21.67
2019-03-31T23:56:37.394Z,22.47
2019-03-31T23:59:07.335Z,17.80
